createdAt,value
2022-11-05T00:01:50.672Z,43.65
2022-11-05T00:04:36.447Z,42.84
2022-11-05T00:07:35.085Z,43.44
2022-11-05T00:10:05.386Z,43.68
2022-11-05T00:12:50.982Z,43.46
2022-11-05T00:15:36.709Z,43.05
2022-11-05T00:18:03.943Z,43.03
2022-11-05T00:20:31.044Z,42.43
2022-11-05T00:23:23.916Z,42.52
2022-11-05T00:25:55.360Z,42.54
2022-11-05T00:28:22.223Z,42.86
2022-11-05T00:30:50.261Z,41.94
2022-11-05T00:33:17.207Z,41.80
2022-11-05T00:35:44.226Z,40.57
2022-11-05T00:38:11.360Z,41.22
2022-11-05T00:40:38.704Z,41.06
2022-11-05T00:43:24.010Z,41.37
2022-11-05T00:45:50.814Z,41.10
2022-11-05T00:48:36.113Z,41.49
2022-11-05T00:51:02.853Z,41.35
2022-11-05T00:53:29.996Z,41.75
2022-11-05T00:55:57.011Z,41.18
2022-11-05T00:58:24.444Z,41.74
2022-11-05T01:00:59.543Z,41.78
2022-11-05T01:03:37.929Z,41.45
2022-11-05T01:06:13.815Z,41.96
2022-11-05T01:08:42.485Z,41.92
2022-11-05T01:11:37.214Z,42.33
2022-11-05T01:14:10.295Z,41.69
2022-11-05T01:16:38.655Z,42.07
2022-11-05T01:19:07.485Z,42.29
2022-11-05T01:21:34.621Z,42.34
2022-11-05T01:24:02.565Z,42.09
2022-11-05T01:26:29.648Z,42.36
2022-11-05T01:29:00.619Z,42.67
2022-11-05T01:31:28.748Z,42.30
2022-11-05T01:33:55.628Z,42.61
2022-11-05T01:36:22.564Z,42.70
2022-11-05T01:38:49.491Z,42.64
2022-11-05T01:41:16.415Z,42.85
2022-11-05T01:43:54.622Z,42.70
2022-11-05T01:46:29.707Z,42.83
2022-11-05T01:49:03.550Z,43.18
2022-11-05T01:51:31.074Z,43.27
2022-11-05T01:54:03.631Z,43.36
2022-11-05T01:56:40.131Z,43.27
2022-11-05T01:59:12.342Z,43.32
2022-11-05T02:01:39.384Z,43.69
2022-11-05T02:04:12.100Z,43.66
2022-11-05T02:06:46.373Z,43.65
2022-11-05T02:09:21.270Z,43.96
2022-11-05T02:11:49.943Z,43.94
2022-11-05T02:14:17.100Z,44.02
2022-11-05T02:17:06.382Z,44.07
2022-11-05T02:20:12.807Z,44.05
2022-11-05T02:23:02.773Z,43.88
2022-11-05T02:25:42.119Z,44.09
2022-11-05T02:28:31.939Z,44.11
2022-11-05T02:31:23.559Z,44.20
2022-11-05T02:34:08.498Z,44.23
2022-11-05T02:37:15.099Z,44.66
2022-11-05T02:40:00.162Z,44.58
2022-11-05T02:42:43.865Z,44.51
2022-11-05T02:45:34.839Z,44.80
2022-11-05T02:48:14.576Z,44.81
2022-11-05T02:51:26.788Z,44.88
2022-11-05T02:53:53.607Z,44.78
2022-11-05T02:56:33.042Z,44.87
2022-11-05T02:58:59.947Z,44.97
2022-11-05T03:01:27.143Z,45.01
2022-11-05T03:04:00.873Z,45.01
2022-11-05T03:06:27.730Z,45.00
2022-11-05T03:09:09.671Z,44.86
2022-11-05T03:12:04.888Z,44.05
2022-11-05T03:14:52.871Z,44.28
2022-11-05T03:17:38.447Z,44.52
2022-11-05T03:20:16.547Z,44.77
2022-11-05T03:22:51.636Z,44.72
2022-11-05T03:25:23.089Z,44.46
2022-11-05T03:27:57.813Z,44.68
2022-11-05T03:30:25.641Z,44.83
2022-11-05T03:33:02.104Z,44.84
2022-11-05T03:35:34.991Z,44.53
2022-11-05T03:38:08.092Z,42.98
2022-11-05T03:40:37.433Z,42.13
2022-11-05T03:43:07.610Z,42.73
2022-11-05T03:45:40.651Z,43.44
2022-11-05T03:48:11.010Z,42.96
2022-11-05T03:51:03.678Z,43.52
2022-11-05T03:53:37.106Z,43.45
2022-11-05T03:56:12.963Z,42.92
2022-11-05T03:58:45.734Z,42.82
2022-11-05T04:01:12.876Z,43.00
2022-11-05T04:03:39.804Z,42.25
2022-11-05T04:06:26.725Z,42.50
2022-11-05T04:09:12.508Z,42.59
2022-11-05T04:12:00.592Z,42.03
2022-11-05T04:14:27.554Z,41.91
2022-11-05T04:17:06.552Z,41.00
2022-11-05T04:19:56.633Z,39.31
2022-11-05T04:22:43.691Z,38.37
2022-11-05T04:25:11.467Z,38.68
2022-11-05T04:27:38.351Z,39.22
2022-11-05T04:30:18.648Z,39.92
2022-11-05T04:33:03.710Z,40.79
2022-11-05T04:35:50.777Z,42.05
2022-11-05T04:38:19.781Z,42.23
2022-11-05T04:40:48.269Z,42.46
2022-11-05T04:43:18.791Z,42.05
2022-11-05T04:45:46.054Z,42.26
2022-11-05T04:48:13.483Z,42.21
2022-11-05T04:50:40.363Z,41.44
2022-11-05T04:53:09.319Z,41.84
2022-11-05T04:55:36.552Z,42.98
2022-11-05T04:58:03.623Z,40.98
2022-11-05T05:00:30.632Z,41.63
2022-11-05T05:02:57.570Z,41.95
2022-11-05T05:05:24.489Z,42.37
2022-11-05T05:07:51.527Z,41.97
2022-11-05T05:10:18.518Z,41.80
2022-11-05T05:12:45.443Z,41.13
2022-11-05T05:15:12.355Z,40.78
2022-11-05T05:17:39.215Z,40.68
2022-11-05T05:20:24.942Z,41.15
2022-11-05T05:22:53.551Z,39.99
2022-11-05T05:25:21.049Z,40.58
2022-11-05T05:27:47.983Z,41.33
2022-11-05T05:30:15.012Z,41.06
2022-11-05T05:32:41.908Z,40.58
2022-11-05T05:35:09.466Z,40.91
2022-11-05T05:37:36.369Z,41.22
2022-11-05T05:40:03.583Z,41.12
2022-11-05T05:42:30.581Z,39.68
2022-11-05T05:44:57.640Z,38.25
2022-11-05T05:47:24.523Z,34.80
2022-11-05T05:49:51.494Z,35.33
2022-11-05T05:52:18.795Z,36.07
2022-11-05T05:54:45.739Z,33.18
2022-11-05T05:57:12.716Z,32.49
2022-11-05T05:59:40.133Z,35.42
2022-11-05T06:02:07.164Z,36.67
2022-11-05T06:04:34.296Z,37.24
2022-11-05T06:07:01.277Z,39.16
2022-11-05T06:09:28.170Z,36.25
2022-11-05T06:11:55.184Z,32.92
2022-11-05T06:14:22.057Z,32.97
2022-11-05T06:16:48.944Z,33.84
2022-11-05T06:19:15.787Z,33.19
2022-11-05T06:21:42.863Z,34.05
2022-11-05T06:24:10.538Z,34.40
2022-11-05T06:26:42.825Z,34.57
2022-11-05T06:29:10.746Z,34.75
2022-11-05T06:31:37.613Z,35.32
2022-11-05T06:34:04.550Z,34.79
2022-11-05T06:36:31.525Z,35.05
2022-11-05T06:38:58.450Z,35.37
2022-11-05T06:41:25.468Z,35.45
2022-11-05T06:43:52.453Z,34.03
2022-11-05T06:46:19.914Z,34.68
2022-11-05T06:48:48.610Z,34.19
2022-11-05T06:51:15.663Z,34.54
2022-11-05T06:53:42.832Z,34.71
2022-11-05T06:56:10.387Z,35.14
2022-11-05T06:58:37.498Z,34.47
2022-11-05T07:01:09.457Z,34.94
2022-11-05T07:03:37.659Z,34.04
2022-11-05T07:06:06.405Z,34.31
2022-11-05T07:08:35.215Z,34.12
2022-11-05T07:11:02.318Z,34.01
2022-11-05T07:13:29.348Z,32.98
2022-11-05T07:15:56.669Z,33.74
2022-11-05T07:18:24.045Z,32.70
2022-11-05T07:20:51.011Z,32.72
2022-11-05T07:23:18.014Z,33.91
2022-11-05T07:25:45.223Z,32.34
2022-11-05T07:28:12.332Z,30.12
2022-11-05T07:30:39.264Z,29.85
2022-11-05T07:33:06.210Z,30.10
2022-11-05T07:35:33.455Z,29.46
2022-11-05T07:38:00.408Z,30.11
2022-11-05T07:40:29.198Z,29.75
2022-11-05T07:42:58.713Z,30.32
2022-11-05T07:45:26.893Z,28.59
2022-11-05T07:47:58.679Z,28.91
2022-11-05T07:50:27.789Z,30.54
2022-11-05T07:53:04.028Z,28.38
2022-11-05T07:55:31.362Z,28.00
2022-11-05T07:57:58.316Z,28.41
2022-11-05T08:00:26.601Z,27.11
2022-11-05T08:03:12.191Z,25.91
2022-11-05T08:05:44.576Z,26.72
2022-11-05T08:08:13.551Z,25.92
2022-11-05T08:10:40.863Z,26.29
2022-11-05T08:13:09.184Z,25.57
2022-11-05T08:15:37.068Z,26.38
2022-11-05T08:18:10.619Z,26.81
2022-11-05T08:20:38.656Z,25.50
2022-11-05T08:23:06.150Z,26.04
2022-11-05T08:25:33.158Z,26.15
2022-11-05T08:28:10.478Z,25.60
2022-11-05T08:30:37.485Z,26.28
2022-11-05T08:33:11.065Z,26.76
2022-11-05T08:35:42.450Z,27.32
2022-11-05T08:38:13.826Z,27.39
2022-11-05T08:40:41.949Z,27.23
2022-11-05T08:43:16.306Z,26.51
2022-11-05T08:45:43.243Z,26.35
2022-11-05T08:48:13.297Z,26.92
2022-11-05T08:50:40.699Z,25.60
2022-11-05T08:53:09.358Z,27.05
2022-11-05T08:55:36.935Z,27.15
2022-11-05T08:58:15.464Z,28.11
2022-11-05T09:00:43.698Z,25.64
2022-11-05T09:03:11.252Z,26.50
2022-11-05T09:05:40.277Z,26.29
2022-11-05T09:08:10.472Z,26.23
2022-11-05T09:10:38.143Z,24.93
2022-11-05T09:13:05.440Z,25.39
2022-11-05T09:15:33.582Z,25.55
2022-11-05T09:18:00.475Z,25.43
2022-11-05T09:20:27.455Z,26.24
2022-11-05T09:22:54.464Z,24.49
2022-11-05T09:25:21.475Z,24.82
2022-11-05T09:27:48.431Z,24.66
2022-11-05T09:30:15.874Z,25.26
2022-11-05T09:32:42.879Z,25.21
2022-11-05T09:35:10.393Z,25.00
2022-11-05T09:37:38.151Z,25.42
2022-11-05T09:40:06.127Z,26.22
2022-11-05T09:42:39.697Z,25.22
2022-11-05T09:45:19.092Z,24.50
2022-11-05T09:47:52.472Z,24.60
2022-11-05T09:50:24.476Z,25.91
2022-11-05T09:52:51.589Z,27.07
2022-11-05T09:55:29.637Z,26.03
2022-11-05T09:58:00.238Z,25.35
2022-11-05T10:00:28.818Z,25.98
2022-11-05T10:03:06.457Z,25.39
2022-11-05T10:05:35.077Z,28.12
2022-11-05T10:08:07.765Z,26.91
2022-11-05T10:11:16.573Z,25.92
2022-11-05T10:14:03.112Z,26.50
2022-11-05T10:16:35.293Z,26.01
2022-11-05T10:19:09.918Z,27.03
2022-11-05T10:22:04.983Z,25.94
2022-11-05T10:24:25.080Z,25.69
2022-11-05T10:26:54.894Z,26.72
2022-11-05T10:29:29.698Z,27.06
2022-11-05T10:31:57.699Z,25.86
2022-11-05T10:34:29.533Z,28.07
2022-11-05T10:36:57.569Z,26.97
2022-11-05T10:39:28.179Z,25.99
2022-11-05T10:42:13.536Z,26.53
2022-11-05T10:44:53.727Z,25.78
2022-11-05T10:47:42.416Z,26.12
2022-11-05T10:50:16.861Z,25.69
2022-11-05T10:53:03.565Z,26.16
2022-11-05T10:55:36.054Z,25.88
2022-11-05T10:58:19.745Z,26.43
2022-11-05T11:01:02.811Z,26.03
2022-11-05T11:03:46.054Z,26.35
2022-11-05T11:06:34.706Z,26.79
2022-11-05T11:09:05.830Z,27.09
2022-11-05T11:11:36.560Z,27.59
2022-11-05T11:14:19.909Z,26.06
2022-11-05T11:16:51.807Z,25.99
2022-11-05T11:19:24.999Z,26.49
2022-11-05T11:22:03.960Z,28.13
2022-11-05T11:24:37.764Z,26.86
2022-11-05T11:27:09.786Z,26.10
2022-11-05T11:29:42.889Z,26.73
2022-11-05T11:32:20.372Z,26.40
2022-11-05T11:34:52.997Z,26.75
2022-11-05T11:37:34.190Z,27.62
2022-11-05T11:40:13.205Z,28.51
2022-11-05T11:42:44.205Z,28.13
2022-11-05T11:45:51.970Z,27.12
2022-11-05T11:48:23.272Z,28.43
2022-11-05T11:50:51.098Z,26.04
2022-11-05T11:53:21.056Z,25.86
2022-11-05T11:56:23.726Z,26.84
2022-11-05T11:58:56.464Z,26.31
2022-11-05T12:01:41.344Z,27.65
2022-11-05T12:04:54.083Z,27.40
2022-11-05T12:07:32.195Z,27.33
2022-11-05T12:10:22.138Z,28.32
2022-11-05T12:13:19.385Z,27.77
2022-11-05T12:16:03.932Z,27.01
2022-11-05T12:19:07.849Z,27.50
2022-11-05T12:21:52.574Z,28.41
2022-11-05T12:24:38.863Z,26.98
2022-11-05T12:27:15.903Z,27.28
2022-11-05T12:29:51.096Z,25.91
2022-11-05T12:32:30.250Z,26.11
2022-11-05T12:35:15.507Z,27.78
2022-11-05T12:37:42.820Z,27.26
2022-11-05T12:40:35.437Z,27.87
2022-11-05T12:43:39.537Z,27.61
2022-11-05T12:46:16.848Z,27.86
2022-11-05T12:49:30.879Z,28.08
2022-11-05T12:52:07.371Z,27.99
2022-11-05T12:55:03.421Z,27.39
2022-11-05T12:57:33.611Z,28.32
2022-11-05T13:00:23.324Z,28.49
2022-11-05T13:02:58.357Z,28.28
2022-11-05T13:05:39.199Z,29.50
2022-11-05T13:08:19.024Z,29.39
2022-11-05T13:10:52.053Z,28.23
2022-11-05T13:13:33.789Z,29.18
2022-11-05T13:16:33.564Z,29.12
2022-11-05T13:19:24.994Z,28.92
2022-11-05T13:22:13.476Z,29.30
2022-11-05T13:24:57.175Z,29.90
2022-11-05T13:27:39.151Z,30.75
2022-11-05T13:30:12.711Z,30.76
2022-11-05T13:32:45.326Z,31.51
2022-11-05T13:35:21.307Z,32.11
2022-11-05T13:38:13.816Z,31.64
2022-11-05T13:41:00.070Z,32.68
2022-11-05T13:43:33.019Z,32.70
2022-11-05T13:46:11.915Z,32.20
2022-11-05T13:49:05.326Z,31.75
2022-11-05T13:51:54.898Z,31.67
2022-11-05T13:54:37.057Z,32.28
2022-11-05T13:57:14.225Z,33.00
2022-11-05T14:00:21.342Z,33.10
2022-11-05T14:02:50.846Z,33.91
2022-11-05T14:05:24.910Z,33.41
2022-11-05T14:07:53.612Z,34.00
2022-11-05T14:10:37.554Z,33.98
2022-11-05T14:13:31.320Z,33.45
2022-11-05T14:16:04.784Z,34.21
2022-11-05T14:18:41.997Z,34.72
2022-11-05T14:21:26.969Z,34.71
2022-11-05T14:23:56.246Z,34.84
2022-11-05T14:26:24.673Z,35.41
2022-11-05T14:29:11.477Z,35.27
2022-11-05T14:34:44.056Z,35.45
2022-11-05T14:37:10.888Z,35.49
2022-11-05T14:39:39.400Z,35.73
2022-11-05T14:42:21.009Z,35.60
2022-11-05T14:45:15.841Z,36.07
2022-11-05T14:47:52.395Z,36.60
2022-11-05T14:50:25.737Z,36.88
2022-11-05T14:52:58.148Z,37.00
2022-11-05T14:55:43.325Z,37.61
2022-11-05T14:58:34.143Z,37.62
2022-11-05T15:01:03.881Z,38.10
2022-11-05T15:03:45.529Z,37.26
2022-11-05T15:06:21.401Z,37.31
2022-11-05T15:08:48.240Z,37.34
2022-11-05T15:11:38.559Z,37.76
2022-11-05T15:14:16.508Z,38.44
2022-11-05T15:16:48.725Z,38.52
2022-11-05T15:19:37.205Z,39.13
2022-11-05T15:22:12.622Z,39.30
2022-11-05T15:24:42.896Z,39.66
2022-11-05T15:27:29.490Z,39.93
2022-11-05T15:29:57.588Z,39.97
2022-11-05T15:32:26.984Z,39.76
2022-11-05T15:34:56.037Z,39.71
2022-11-05T15:37:27.305Z,39.39
2022-11-05T15:39:55.633Z,39.28
2022-11-05T15:42:24.208Z,39.25
2022-11-05T15:44:53.767Z,39.07
2022-11-05T15:47:29.221Z,39.28
2022-11-05T15:49:57.646Z,38.76
2022-11-05T15:52:34.823Z,38.56
2022-11-05T15:55:13.751Z,38.01
2022-11-05T15:58:00.178Z,38.07
2022-11-05T16:00:29.834Z,37.88
2022-11-05T16:03:05.460Z,38.07
2022-11-05T16:05:43.315Z,38.47
2022-11-05T16:08:30.016Z,38.36
2022-11-05T16:11:00.523Z,38.37
2022-11-05T16:13:41.251Z,38.54
2022-11-05T16:16:13.887Z,38.88
2022-11-05T16:18:42.521Z,39.07
2022-11-05T16:21:15.742Z,38.90
2022-11-05T16:23:48.709Z,39.11
2022-11-05T16:27:01.294Z,39.18
2022-11-05T16:29:34.815Z,39.23
2022-11-05T16:32:05.054Z,37.54
2022-11-05T16:34:35.767Z,38.70
2022-11-05T16:37:05.313Z,38.94
2022-11-05T16:39:32.756Z,38.94
2022-11-05T16:42:00.035Z,39.14
2022-11-05T16:44:27.383Z,39.07
2022-11-05T16:46:54.330Z,39.42
2022-11-05T16:49:21.371Z,39.32
2022-11-05T16:51:48.420Z,39.44
2022-11-05T16:54:15.345Z,39.32
2022-11-05T16:56:43.954Z,39.17
2022-11-05T16:59:13.884Z,38.97
2022-11-05T17:01:42.700Z,39.35
2022-11-05T17:04:13.301Z,38.99
2022-11-05T17:06:40.228Z,39.07
2022-11-05T17:09:07.218Z,38.54
2022-11-05T17:11:34.237Z,38.56
2022-11-05T17:14:01.217Z,38.60
2022-11-05T17:16:28.321Z,38.61
2022-11-05T17:18:55.388Z,38.57
2022-11-05T17:21:22.316Z,38.38
2022-11-05T17:23:49.328Z,38.59
2022-11-05T17:26:16.290Z,38.63
2022-11-05T17:28:43.221Z,39.29
2022-11-05T17:31:13.191Z,39.61
2022-11-05T17:33:41.364Z,39.74
2022-11-05T17:36:11.341Z,39.28
2022-11-05T17:38:38.363Z,39.86
2022-11-05T17:41:20.143Z,39.58
2022-11-05T17:43:48.531Z,39.71
2022-11-05T17:46:17.199Z,40.01
2022-11-05T17:48:44.982Z,40.05
2022-11-05T17:51:15.287Z,40.15
2022-11-05T17:53:43.102Z,40.49
2022-11-05T17:56:22.154Z,41.38
2022-11-05T17:58:55.674Z,41.02
2022-11-05T18:01:31.905Z,41.15
2022-11-05T18:04:02.426Z,40.87
2022-11-05T18:06:32.153Z,40.84
2022-11-05T18:08:59.149Z,40.94
2022-11-05T18:11:26.113Z,41.59
2022-11-05T18:13:52.991Z,42.92
2022-11-05T18:16:19.974Z,42.68
2022-11-05T18:18:48.178Z,43.89
2022-11-05T18:21:15.898Z,43.37
2022-11-05T18:23:43.059Z,43.78
2022-11-05T18:26:14.859Z,46.42
2022-11-05T18:28:42.843Z,46.53
2022-11-05T18:31:18.342Z,46.12
2022-11-05T18:33:45.500Z,46.12
2022-11-05T18:36:23.059Z,45.39
2022-11-05T18:38:49.986Z,46.04
2022-11-05T18:41:17.920Z,46.72
2022-11-05T18:43:44.976Z,46.95
2022-11-05T18:46:29.274Z,46.31
2022-11-05T18:49:00.167Z,47.41
2022-11-05T18:51:28.101Z,47.38
2022-11-05T18:53:55.751Z,48.28
2022-11-05T18:56:23.051Z,47.26
2022-11-05T18:59:14.736Z,47.31
2022-11-05T19:01:40.669Z,49.37
2022-11-05T19:04:07.702Z,50.28
2022-11-05T19:06:35.504Z,50.62
2022-11-05T19:09:04.043Z,50.52
2022-11-05T19:11:31.529Z,51.14
2022-11-05T19:13:58.776Z,50.89
2022-11-05T19:16:28.080Z,53.26
2022-11-05T19:18:57.797Z,52.00
2022-11-05T19:21:26.223Z,52.34
2022-11-05T19:23:53.911Z,52.73
2022-11-05T19:26:28.392Z,53.43
2022-11-05T19:28:56.845Z,52.81
2022-11-05T19:31:23.903Z,53.03
2022-11-05T19:33:52.338Z,51.13
2022-11-05T19:36:20.760Z,51.19
2022-11-05T19:38:49.815Z,51.09
2022-11-05T19:41:21.656Z,48.67
2022-11-05T19:43:48.788Z,49.19
2022-11-05T19:46:18.388Z,50.34
2022-11-05T19:48:45.913Z,50.68
2022-11-05T19:51:21.708Z,51.44
2022-11-05T19:53:48.966Z,49.90
2022-11-05T19:56:18.809Z,49.92
2022-11-05T19:58:46.491Z,50.27
2022-11-05T20:01:14.713Z,51.09
2022-11-05T20:03:42.106Z,51.34
2022-11-05T20:06:12.308Z,52.04
2022-11-05T20:08:59.887Z,51.97
2022-11-05T20:11:27.699Z,52.50
2022-11-05T20:13:54.646Z,53.37
2022-11-05T20:16:27.293Z,53.18
2022-11-05T20:18:54.953Z,54.52
2022-11-05T20:21:21.845Z,54.89
2022-11-05T20:23:48.835Z,55.66
2022-11-05T20:26:16.285Z,56.06
2022-11-05T20:28:43.918Z,56.50
2022-11-05T20:31:13.909Z,56.42
2022-11-05T20:33:41.615Z,57.26
2022-11-05T20:36:12.467Z,55.64
2022-11-05T20:38:39.713Z,56.77
2022-11-05T20:41:09.320Z,56.65
2022-11-05T20:43:37.360Z,57.32
2022-11-05T20:46:04.738Z,56.62
2022-11-05T20:48:33.147Z,57.29
2022-11-05T20:51:05.905Z,57.51
2022-11-05T20:53:33.173Z,57.03
2022-11-05T20:56:05.043Z,57.67
2022-11-05T20:58:36.176Z,57.57
2022-11-05T21:01:04.588Z,56.78
2022-11-05T21:03:31.843Z,57.51
2022-11-05T21:06:00.129Z,57.15
2022-11-05T21:08:27.943Z,57.36
2022-11-05T21:10:56.198Z,57.41
2022-11-05T21:13:25.147Z,57.82
2022-11-05T21:15:54.750Z,58.45
2022-11-05T21:18:26.001Z,59.77
2022-11-05T21:20:53.840Z,60.00
2022-11-05T21:23:21.039Z,60.34
2022-11-05T21:25:48.339Z,59.30
2022-11-05T21:28:16.131Z,59.11
2022-11-05T21:30:49.211Z,59.66
2022-11-05T21:33:18.872Z,59.39
2022-11-05T21:35:47.988Z,60.54
2022-11-05T21:38:16.861Z,60.61
2022-11-05T21:40:45.091Z,61.25
2022-11-05T21:43:13.104Z,61.48
2022-11-05T21:45:41.352Z,62.15
2022-11-05T21:48:08.959Z,61.74
2022-11-05T21:50:57.901Z,61.62
2022-11-05T21:53:43.472Z,61.16
2022-11-05T21:56:39.386Z,61.89
2022-11-05T21:59:25.498Z,61.29
2022-11-05T22:02:01.511Z,60.75
2022-11-05T22:04:34.822Z,60.58
2022-11-05T22:07:01.775Z,61.14
2022-11-05T22:09:28.776Z,61.73
2022-11-05T22:11:56.216Z,62.70
2022-11-05T22:14:24.081Z,62.59
2022-11-05T22:16:51.110Z,62.62
2022-11-05T22:19:18.571Z,62.82
2022-11-05T22:21:46.162Z,62.24
2022-11-05T22:24:13.351Z,62.10
2022-11-05T22:26:40.282Z,62.63
2022-11-05T22:29:07.297Z,62.76
2022-11-05T22:31:36.473Z,62.81
2022-11-05T22:34:05.109Z,62.68
2022-11-05T22:36:35.488Z,63.08
2022-11-05T22:39:03.290Z,62.68
2022-11-05T22:41:30.360Z,61.90
2022-11-05T22:43:58.061Z,61.61
2022-11-05T22:46:26.893Z,61.69
2022-11-05T22:48:54.261Z,61.95
2022-11-05T22:51:23.457Z,61.85
2022-11-05T22:53:51.037Z,62.04
2022-11-05T22:56:23.286Z,61.91
2022-11-05T22:58:50.954Z,61.78
2022-11-05T23:01:18.993Z,61.99
2022-11-05T23:03:47.426Z,62.09
2022-11-05T23:06:41.418Z,61.61
2022-11-05T23:09:36.822Z,61.84
2022-11-05T23:12:06.332Z,62.36
2022-11-05T23:14:33.265Z,62.09
2022-11-05T23:17:18.719Z,61.89
2022-11-05T23:20:04.677Z,62.04
2022-11-05T23:22:50.707Z,62.63
2022-11-05T23:25:22.122Z,61.81
2022-11-05T23:27:52.147Z,61.51
2022-11-05T23:30:22.364Z,61.66
2022-11-05T23:32:50.204Z,62.37
2022-11-05T23:35:17.560Z,62.27
2022-11-05T23:38:03.180Z,62.18
2022-11-05T23:40:51.849Z,62.22
2022-11-05T23:43:37.335Z,61.80
2022-11-05T23:46:22.957Z,62.60
2022-11-05T23:48:50.799Z,62.20
2022-11-05T23:51:17.656Z,62.37
2022-11-05T23:53:44.586Z,62.08
2022-11-05T23:56:14.183Z,62.38
2022-11-05T23:58:42.169Z,61.76
